Upstream stations:
Downstream station:
SHEF ID: BRIO2 Canadian River at Bridgeport, OK
STATION TYPE:
Regulating: Stage = 15.00, Flow = 8545
STAGE RIV-FLOW
ft cfs
Ccp-Rev Ccp-Rev
(US/Central)
06/03 00:00 12.60 2190
06/03 01:00 12.59 2176
06/03 02:00 12.57 2146
06/03 03:00 12.56 2132
06/03 04:00 12.54 2103
06/03 05:00 12.53 2089
06/03 06:00 12.57 2146
06/03 07:00 12.94 2733
06/03 08:00 13.13 3073
06/03 09:00 13.11 3036
06/03 10:00 13.03 2891
06/03 11:00 12.94 2733
06/03 12:00 12.93 2716
06/03 13:00 12.90 2665
06/03 14:00 12.89 2648
06/03 15:00 12.88 2631
06/03 16:00 12.86 2598
06/03 17:00 12.86 2598
06/03 18:00 12.83 2548
06/03 19:00 12.84 2565
06/03 20:00 11.68 1112
06/03 21:00 12.65 2265
06/03 22:00 11.62 1068
06/03 23:00 ---- ----